Time;durP1;ratioP1;P1;durP2;ratioP2;P2;SDS_P1;SDS_P2;PMS_P1;PMS_P2;Temp;Humidity;BMP_temperature;BMP_pressure;BME280_temperature;BME280_humidity;BME280_pressure;Samples;Min_cycle;Max_cycle;Signal;HPM_P1;HPM_P2
2022/11/22 00:00:42;;;;;;;1.90;0.88;;;6.40;99.90;;;6.30;100.00;95465.78;5059816;28;20143;-73
2022/11/22 00:03:09;;;;;;;1.83;0.80;;;6.50;99.90;;;6.18;100.00;95470.75;5039141;28;20055;-74
2022/11/22 00:05:36;;;;;;;2.35;0.95;;;6.50;99.90;;;6.16;100.00;95480.31;5060733;28;20111;-74
2022/11/22 00:08:04;;;;;;;3.75;0.90;;;6.50;99.90;;;6.13;100.00;95483.03;5044099;28;20049;-74
2022/11/22 00:10:32;;;;;;;2.97;1.05;;;6.50;99.90;;;6.15;100.00;95477.81;5047218;28;20656;-74
2022/11/22 00:12:59;;;;;;;6.15;1.48;;;6.60;99.90;;;6.24;100.00;95480.66;5039148;28;20045;-74
2022/11/22 00:15:26;;;;;;;4.82;1.40;;;6.60;99.90;;;6.30;100.00;95483.81;5043643;28;20045;-74
2022/11/22 00:17:53;;;;;;;3.88;1.30;;;6.60;99.90;;;6.37;100.00;95485.13;5026637;28;20589;-74
2022/11/22 00:20:20;;;;;;;6.78;1.38;;;6.60;99.90;;;6.28;100.00;95484.72;5044365;28;20040;-74
2022/11/22 00:22:47;;;;;;;4.45;1.27;;;6.60;99.90;;;6.35;100.00;95481.78;5040409;28;20076;-74
2022/11/22 00:25:14;;;;;;;4.60;1.35;;;6.60;99.90;;;6.31;100.00;95488.03;5043664;28;20132;-73
2022/11/22 00:27:41;;;;;;;5.20;1.67;;;6.60;99.90;;;6.30;100.00;95492.38;5044682;28;20598;-74
2022/11/22 00:30:09;;;;;;;6.78;1.70;;;6.70;99.90;;;6.33;100.00;95475.91;5040541;28;20045;-73
2022/11/22 00:32:36;;;;;;;6.82;1.35;;;6.70;99.90;;;6.43;100.00;95487.31;5060138;28;20064;-74
2022/11/22 00:35:04;;;;;;;10.20;1.83;;;6.70;99.90;;;6.37;100.00;95498.00;5043034;28;20075;-74
2022/11/22 00:37:31;;;;;;;10.25;2.42;;;6.70;99.90;;;6.53;100.00;95492.75;5043998;28;20053;-73
2022/11/22 00:39:58;;;;;;;9.13;2.22;;;6.70;99.90;;;6.47;100.00;95494.75;5041852;28;20470;-74
2022/11/22 00:42:25;;;;;;;9.75;1.77;;;6.70;99.90;;;6.45;100.00;95495.78;5043181;28;20093;-73
2022/11/22 00:44:52;;;;;;;11.15;1.98;;;6.80;99.90;;;6.48;100.00;95490.47;5041349;28;20053;-74
2022/11/22 00:47:19;;;;;;;9.15;1.95;;;6.80;99.90;;;6.40;100.00;95495.22;5042126;28;20041;-74
2022/11/22 00:49:45;;;;;;;11.60;2.33;;;6.80;99.90;;;6.36;100.00;95499.72;5051466;28;20462;-74
2022/11/22 00:52:13;;;;;;;12.70;2.13;;;6.80;99.90;;;6.52;100.00;95503.97;5042761;28;20063;-74
2022/11/22 00:54:40;;;;;;;13.52;2.83;;;6.80;99.90;;;6.40;100.00;95514.09;5045639;28;20053;-74
2022/11/22 00:57:07;;;;;;;10.75;2.05;;;6.70;99.90;;;6.43;100.00;95516.50;5044159;28;20489;-73
2022/11/22 00:59:34;;;;;;;8.85;1.85;;;6.70;99.90;;;6.36;100.00;95520.34;5037855;28;20060;-74
2022/11/22 01:02:01;;;;;;;11.45;1.85;;;6.70;99.90;;;6.49;100.00;95525.59;5042556;28;20672;-74
2022/11/22 01:04:28;;;;;;;11.18;2.17;;;6.70;99.90;;;6.47;100.00;95532.59;5044595;28;20073;-74
2022/11/22 01:06:54;;;;;;;11.73;2.17;;;6.80;99.90;;;6.52;100.00;95533.16;5045480;28;20059;-74
2022/11/22 01:09:23;;;;;;;16.48;3.10;;;6.70;99.90;;;6.44;100.00;95538.75;5043956;28;20060;-73
2022/11/22 01:11:50;;;;;;;11.13;2.05;;;6.80;99.90;;;6.46;100.00;95534.34;5047123;28;20053;-73
2022/11/22 01:14:17;;;;;;;10.95;2.15;;;6.80;99.90;;;6.45;100.00;95542.16;5044700;28;20536;-73
2022/11/22 01:16:44;;;;;;;12.27;2.67;;;6.80;99.90;;;6.43;100.00;95524.25;5043600;28;20055;-74
2022/11/22 01:19:12;;;;;;;10.52;2.05;;;6.80;99.90;;;6.44;100.00;95537.94;5043841;28;20056;-75
2022/11/22 01:21:39;;;;;;;13.48;1.85;;;6.80;99.90;;;6.44;100.00;95546.50;5055989;28;20521;-74
2022/11/22 01:24:06;;;;;;;15.82;2.67;;;6.80;99.90;;;6.43;100.00;95551.72;5039881;28;20049;-74
2022/11/22 01:26:34;;;;;;;15.32;2.97;;;6.70;99.90;;;6.46;100.00;95551.56;5036724;28;20057;-74
2022/11/22 01:29:01;;;;;;;18.70;2.45;;;6.80;99.90;;;6.36;100.00;95548.69;5052514;28;20045;-74
2022/11/22 01:31:28;;;;;;;14.80;2.72;;;6.80;99.90;;;6.51;100.00;95549.53;5040667;28;20120;-73
2022/11/22 01:33:57;;;;;;;15.60;2.30;;;6.80;99.90;;;6.42;100.00;95562.97;5035567;28;20095;-73
2022/11/22 01:36:26;;;;;;;23.75;3.25;;;6.80;99.90;;;6.35;100.00;95570.22;5043103;28;20128;-74
2022/11/22 01:38:53;;;;;;;16.15;2.20;;;6.70;99.90;;;6.40;100.00;95569.97;5044150;28;20490;-74
2022/11/22 01:41:20;;;;;;;28.70;2.85;;;6.80;99.90;;;6.44;100.00;95568.88;5024756;28;20517;-74
2022/11/22 01:43:47;;;;;;;19.75;2.65;;;6.80;99.90;;;6.38;100.00;95579.53;5045738;28;20053;-74
2022/11/22 01:46:32;;;;;;;23.20;3.03;;;6.70;99.90;;;6.45;100.00;95567.94;5046829;28;20110;-73
2022/11/22 01:49:01;;;;;;;20.90;2.42;;;6.80;99.90;;;6.38;100.00;95579.53;5044447;28;20045;-74
2022/11/22 01:51:36;;;;;;;17.92;2.15;;;6.70;99.90;;;6.34;100.00;95585.75;5044186;28;20052;-74
2022/11/22 01:54:15;;;;;;;21.70;2.88;;;6.70;99.90;;;6.44;100.00;95577.44;5059387;28;20044;-74
2022/11/22 01:56:46;;;;;;;21.77;3.35;;;6.70;99.90;;;6.35;100.00;95585.69;5042855;28;20045;-74
2022/11/22 01:59:18;;;;;;;18.55;2.83;;;6.70;99.90;;;6.40;100.00;95577.69;5055476;28;20157;-74
2022/11/22 02:01:45;;;;;;;18.73;2.80;;;6.60;99.90;;;6.42;100.00;95576.69;5039811;28;20490;-73
2022/11/22 02:04:15;;;;;;;26.05;3.90;;;6.60;99.90;;;6.43;100.00;95580.94;5042981;28;20049;-73
2022/11/22 02:07:07;;;;;;;26.35;3.17;;;6.60;99.90;;;6.40;100.00;95578.50;5056518;28;20750;-73
2022/11/22 02:09:36;;;;;;;23.17;2.55;;;6.60;99.90;;;6.43;100.00;95585.22;5040915;28;20461;-74
2022/11/22 02:12:05;;;;;;;23.77;3.08;;;6.60;99.90;;;6.32;100.00;95598.75;5043476;28;20045;-73
2022/11/22 02:14:33;;;;;;;23.33;3.33;;;6.60;99.90;;;6.28;100.00;95594.69;5035895;28;20052;-74
2022/11/22 02:17:00;;;;;;;17.40;2.88;;;6.60;99.90;;;6.24;100.00;95583.72;5041300;28;20041;-75
2022/11/22 02:19:39;;;;;;;26.30;3.17;;;6.60;99.90;;;6.25;100.00;95587.16;5042680;28;20135;-74
2022/11/22 02:22:19;;;;;;;29.90;3.65;;;6.60;99.90;;;6.24;100.00;95573.41;5040713;28;20048;-74
2022/11/22 02:25:05;;;;;;;27.33;3.45;;;6.60;99.90;;;6.22;100.00;95580.41;5042459;28;20057;-73
2022/11/22 02:27:32;;;;;;;17.88;2.83;;;6.50;99.90;;;6.10;100.00;95593.16;5043585;28;20049;-73
2022/11/22 02:29:59;;;;;;;24.42;3.30;;;6.50;99.90;;;6.15;100.00;95602.28;5040058;28;20045;-72
2022/11/22 02:32:26;;;;;;;20.25;2.97;;;6.40;99.90;;;6.05;100.00;95598.56;5043355;28;20056;-74
2022/11/22 02:34:53;;;;;;;22.52;3.00;;;6.40;99.90;;;6.04;100.00;95605.47;5039004;28;20644;-73
2022/11/22 02:37:28;;;;;;;27.48;3.88;;;6.40;99.90;;;5.96;100.00;95615.38;5040266;28;20102;-74
2022/11/22 02:40:07;;;;;;;24.33;3.20;;;6.30;99.90;;;5.98;100.00;95623.84;5045153;28;20045;-74
2022/11/22 02:42:34;;;;;;;24.42;3.08;;;6.30;99.90;;;6.00;100.00;95618.63;5036557;28;20053;-73
2022/11/22 02:45:01;;;;;;;23.33;3.20;;;6.20;99.90;;;5.94;100.00;95634.38;5039167;28;20158;-74
2022/11/22 02:47:28;;;;;;;29.67;3.22;;;6.20;99.90;;;5.86;100.00;95622.75;5042922;28;20102;-74
2022/11/22 02:49:55;;;;;;;31.63;3.17;;;6.30;99.90;;;5.96;100.00;95640.28;5041911;28;20060;-74
2022/11/22 02:52:21;;;;;;;29.75;3.08;;;6.30;99.90;;;5.84;100.00;95641.78;5042142;28;20452;-73
2022/11/22 02:54:48;;;;;;;19.33;2.85;;;6.40;99.90;;;5.96;100.00;95638.53;5040739;28;20044;-75
2022/11/22 02:57:15;;;;;;;21.10;3.30;;;6.40;99.90;;;5.91;100.00;95643.09;5041511;28;20041;-74
2022/11/22 02:59:42;;;;;;;21.90;3.50;;;6.30;99.90;;;5.88;100.00;95635.53;5043410;28;20049;-74
2022/11/22 03:02:09;;;;;;;21.00;3.28;;;6.30;99.90;;;5.90;100.00;95635.44;5039936;28;20048;-74
2022/11/22 03:04:36;;;;;;;18.95;2.92;;;6.30;99.90;;;5.94;100.00;95647.25;5040989;28;20053;-74
2022/11/22 03:07:03;;;;;;;25.50;3.92;;;6.20;99.90;;;5.87;100.00;95647.56;5041131;28;20045;-73
2022/11/22 03:09:31;;;;;;;28.83;2.92;;;6.20;99.90;;;5.71;100.00;95656.22;5045872;28;20093;-73
2022/11/22 03:11:58;;;;;;;23.77;3.60;;;6.30;99.90;;;5.66;100.00;95659.03;5056120;28;20064;-74
2022/11/22 03:14:25;;;;;;;21.27;3.00;;;6.20;99.90;;;5.59;100.00;95655.97;5058238;28;20060;-74
2022/11/22 03:16:52;;;;;;;25.23;2.78;;;6.10;99.90;;;5.62;100.00;95658.38;5043125;28;20506;-74
2022/11/22 03:19:18;;;;;;;21.92;2.97;;;6.10;99.90;;;5.58;100.00;95663.75;5040058;28;20049;-75
2022/11/22 03:21:45;;;;;;;19.38;2.70;;;6.10;99.90;;;5.55;100.00;95669.91;5042569;28;20122;-74
2022/11/22 03:24:12;;;;;;;25.45;3.85;;;6.00;99.90;;;5.61;100.00;95661.00;5043314;28;20060;-75
2022/11/22 03:26:39;;;;;;;21.95;2.97;;;6.00;99.90;;;5.53;100.00;95673.47;5037786;28;20053;-75
2022/11/22 03:29:06;;;;;;;24.15;2.97;;;6.00;99.90;;;5.51;100.00;95665.81;5043875;28;20048;-74
2022/11/22 03:31:33;;;;;;;24.35;3.05;;;6.00;99.90;;;5.53;100.00;95666.56;5041763;28;20052;-73
2022/11/22 03:34:00;;;;;;;30.38;2.97;;;5.90;99.90;;;5.44;100.00;95674.78;5046584;28;20056;-74
2022/11/22 03:36:26;;;;;;;25.58;3.25;;;5.90;99.90;;;5.47;100.00;95655.78;5046066;28;20439;-73
2022/11/22 03:38:53;;;;;;;28.45;3.40;;;5.90;99.90;;;5.47;100.00;95653.19;5043602;28;20111;-73
2022/11/22 03:41:20;;;;;;;20.35;2.80;;;5.80;99.90;;;5.51;100.00;95658.09;5046301;28;20056;-74
2022/11/22 03:43:47;;;;;;;23.85;2.95;;;5.80;99.90;;;5.42;100.00;95669.72;5046958;28;20071;-74
2022/11/22 03:46:19;;;;;;;33.80;3.35;;;5.90;99.90;;;5.52;100.00;95658.94;5046795;28;20053;-73
2022/11/22 03:48:46;;;;;;;30.70;4.05;;;5.90;99.90;;;5.39;100.00;95658.78;5046100;28;20422;-74
2022/11/22 03:51:13;;;;;;;19.30;2.95;;;5.90;99.90;;;5.44;100.00;95654.19;5046831;28;20099;-74
2022/11/22 03:53:40;;;;;;;16.13;2.75;;;5.90;99.90;;;5.52;100.00;95640.91;5043627;28;20078;-73
2022/11/22 03:56:07;;;;;;;23.50;3.15;;;5.90;99.90;;;5.52;100.00;95640.91;5061818;28;20512;-74
2022/11/22 03:58:34;;;;;;;19.10;3.20;;;5.90;99.90;;;5.42;100.00;95641.41;5044142;28;20048;-73
2022/11/22 04:01:01;;;;;;;23.10;2.78;;;5.90;99.90;;;5.52;100.00;95639.19;5042917;28;20049;-74
2022/11/22 04:03:28;;;;;;;21.75;2.58;;;5.90;99.90;;;5.32;100.00;95636.84;5046541;28;20075;-74
2022/11/22 04:05:55;;;;;;;19.30;2.80;;;5.90;99.90;;;5.47;100.00;95641.16;5045286;28;20092;-74
2022/11/22 04:08:22;;;;;;;21.65;3.22;;;5.80;99.90;;;5.47;100.00;95636.03;5042159;28;20143;-73
2022/11/22 04:10:50;;;;;;;22.23;2.72;;;5.80;99.90;;;5.40;100.00;95648.38;5043416;28;20049;-73
2022/11/22 04:13:18;;;;;;;23.65;2.72;;;5.80;99.90;;;5.26;100.00;95657.75;5046777;28;20079;-74
2022/11/22 04:15:45;;;;;;;12.82;1.98;;;5.80;99.90;;;5.21;100.00;95655.41;5059851;28;20102;-72
2022/11/22 04:18:13;;;;;;;16.80;2.08;;;5.80;99.90;;;5.32;100.00;95644.56;5042268;28;20079;-72
2022/11/22 04:23:26;;;;;;;16.17;2.03;;;5.80;99.90;;;5.17;100.00;95653.91;5047972;28;20048;-74
2022/11/22 04:25:59;;;;;;;16.83;2.10;;;5.80;99.90;;;5.19;100.00;95663.19;5046395;28;20054;-74
2022/11/22 04:28:26;;;;;;;16.08;2.80;;;5.80;99.90;;;5.14;100.00;95675.47;5042477;28;20044;-74
2022/11/22 04:33:58;;;;;;;20.73;2.55;;;5.80;99.90;;;5.10;100.00;95671.38;5043046;28;20784;-74
2022/11/22 04:36:25;;;;;;;13.25;1.88;;;5.70;99.90;;;5.09;100.00;95671.50;5043278;28;20041;-73
2022/11/22 04:38:52;;;;;;;14.98;2.47;;;5.70;99.90;;;5.07;100.00;95660.44;5044395;28;20047;-73
2022/11/22 04:41:19;;;;;;;21.33;2.85;;;5.70;99.90;;;5.10;100.00;95671.38;5042229;28;20052;-73
2022/11/22 04:46:31;;;;;;;20.42;2.65;;;5.60;99.90;;;5.01;100.00;95671.88;5047585;28;20627;-73
2022/11/22 04:48:57;;;;;;;12.73;2.53;;;5.70;99.90;;;5.13;100.00;95668.69;5047387;28;20545;-73
2022/11/22 04:54:09;;;;;;;12.98;2.55;;;5.70;99.90;;;5.07;100.00;95669.00;5045979;28;20486;-74
2022/11/22 04:56:36;;;;;;;14.23;1.98;;;5.70;99.90;;;4.97;100.00;95666.06;5045370;28;20499;-74
2022/11/22 04:59:03;;;;;;;13.57;1.83;;;5.70;99.90;;;5.02;100.00;95671.78;5044990;28;20053;-74
2022/11/22 05:01:30;;;;;;;19.02;1.85;;;5.60;99.90;;;4.98;100.00;95669.47;5044663;28;20049;-74
2022/11/22 05:03:57;;;;;;;14.95;1.70;;;5.60;99.90;;;4.93;100.00;95669.69;5046296;28;20451;-72
2022/11/22 05:06:24;;;;;;;18.92;2.50;;;5.60;99.90;;;4.94;100.00;95684.19;5040079;28;20052;-72
2022/11/22 05:08:50;;;;;;;21.35;2.70;;;5.70;99.90;;;4.95;100.00;95680.72;5044082;28;20053;-73
2022/11/22 05:11:17;;;;;;;14.07;2.13;;;5.60;99.90;;;5.03;100.00;95675.19;5044224;28;20044;-73
2022/11/22 05:13:44;;;;;;;16.85;2.03;;;5.70;99.90;;;4.98;100.00;95680.56;5042904;28;20155;-73
2022/11/22 05:16:13;;;;;;;15.75;2.28;;;5.60;99.90;;;5.04;100.00;95684.59;5046407;28;20044;-74
2022/11/22 05:18:41;;;;;;;12.63;1.90;;;5.60;99.90;;;5.06;100.00;95692.19;5041102;28;20056;-74
2022/11/22 05:21:12;;;;;;;15.07;2.38;;;5.60;99.90;;;5.02;100.00;95696.69;5036803;28;20139;-73
2022/11/22 05:23:54;;;;;;;13.00;2.22;;;5.60;99.90;;;5.02;100.00;95689.78;5044051;28;20068;-73
2022/11/22 05:26:35;;;;;;;22.52;2.47;;;5.60;99.90;;;4.93;100.00;95686.88;5042208;28;20503;-73
2022/11/22 05:29:06;;;;;;;13.18;1.88;;;5.50;99.90;;;4.87;100.00;95698.28;5043701;28;20503;-73
2022/11/22 05:31:35;;;;;;;11.32;1.48;;;5.50;99.90;;;4.87;100.00;95708.56;5039420;28;20494;-73
2022/11/22 05:34:02;;;;;;;15.90;1.88;;;5.50;99.90;;;4.93;100.00;95700.53;5035964;28;20125;-73
2022/11/22 05:36:32;;;;;;;16.95;2.05;;;5.50;99.90;;;4.86;100.00;95699.19;5023564;28;20048;-73
2022/11/22 05:39:00;;;;;;;24.10;3.20;;;5.50;99.90;;;4.78;100.00;95722.69;5053457;28;20052;-73
2022/11/22 05:41:27;;;;;;;13.13;1.92;;;5.50;99.90;;;4.90;100.00;95705.00;5041532;28;20394;-73
2022/11/22 05:43:57;;;;;;;16.42;2.42;;;5.50;99.90;;;4.85;100.00;95712.13;5055072;28;20052;-73
2022/11/22 05:46:27;;;;;;;18.15;1.92;;;5.50;99.90;;;4.95;100.00;95714.16;5044210;28;20063;-73
2022/11/22 05:48:56;;;;;;;18.25;1.98;;;5.40;99.90;;;4.86;100.00;95716.34;5041998;28;20521;-73
2022/11/22 05:51:26;;;;;;;14.30;1.70;;;5.50;99.90;;;4.92;100.00;95726.31;5037965;28;20613;-73
2022/11/22 05:54:00;;;;;;;10.90;2.05;;;5.50;99.90;;;4.94;100.00;95733.03;5055587;28;20049;-74
2022/11/22 05:56:27;;;;;;;15.43;1.98;;;5.50;99.90;;;4.91;100.00;95732.38;5037745;28;20042;-73
2022/11/22 05:58:54;;;;;;;20.63;2.10;;;5.50;99.90;;;4.81;100.00;95730.28;5054301;28;20128;-74
2022/11/22 06:01:23;;;;;;;14.95;1.65;;;5.50;99.90;;;4.87;100.00;95734.25;5043738;28;20125;-74
2022/11/22 06:03:51;;;;;;;18.50;2.55;;;5.60;99.90;;;4.89;100.00;95737.59;5044333;28;20049;-74
2022/11/22 06:06:18;;;;;;;11.20;1.75;;;5.60;99.90;;;4.85;100.00;95732.69;5056157;28;20586;-73
2022/11/22 06:08:46;;;;;;;12.80;1.55;;;5.50;99.90;;;4.87;100.00;95736.00;5047236;28;20107;-73
2022/11/22 06:11:20;;;;;;;16.48;1.90;;;5.50;99.90;;;4.78;100.00;95739.84;5027299;28;20455;-74
2022/11/22 06:13:49;;;;;;;;;;;5.60;99.90;;;4.86;100.00;95739.47;5034296;28;20060;-74
2022/11/22 06:16:16;;;;;;;15.38;1.75;;;5.50;99.90;;;4.84;100.00;95737.00;5041714;28;19936;-73
2022/11/22 06:18:44;;;;;;;11.35;2.85;;;5.50;99.90;;;4.80;100.00;95745.75;5037214;28;20435;-74
2022/11/22 06:21:15;;;;;;;12.65;1.90;;;5.50;99.90;;;4.65;100.00;95749.91;5040539;28;20041;-73
2022/11/22 06:23:42;;;;;;;21.02;2.33;;;5.40;99.90;;;4.68;100.00;95752.34;5042012;28;20048;-73
2022/11/22 06:26:12;;;;;;;12.38;2.25;;;5.40;99.90;;;4.65;100.00;95754.22;5041655;28;20044;-73
2022/11/22 06:28:40;;;;;;;14.23;1.75;;;5.20;99.90;;;4.56;100.00;95758.91;5041548;28;20052;-73
2022/11/22 06:31:14;;;;;;;20.17;2.08;;;5.20;99.90;;;4.55;100.00;95764.94;5040020;28;20153;-72
2022/11/22 06:33:42;;;;;;;14.60;1.65;;;5.10;99.90;;;4.54;100.00;95771.00;5040606;28;20056;-72
2022/11/22 06:36:12;;;;;;;15.50;2.30;;;5.20;99.90;;;4.57;100.00;95770.00;5043356;28;20045;-73
2022/11/22 06:38:41;;;;;;;9.63;2.10;;;5.20;99.90;;;4.68;100.00;95775.47;5040000;28;20051;-73
2022/11/22 06:41:12;;;;;;;12.88;2.38;;;5.20;99.90;;;4.67;100.00;95768.63;5057663;28;20056;-73
2022/11/22 06:43:40;;;;;;;12.18;1.80;;;5.20;99.90;;;4.54;100.00;95793.28;5043939;28;20068;-73
2022/11/22 06:46:17;;;;;;;16.75;2.90;;;5.20;99.90;;;4.58;100.00;95803.34;5043488;28;20057;-73
2022/11/22 06:48:45;;;;;;;12.68;1.67;;;5.20;99.90;;;4.57;100.00;95799.09;5031622;28;20140;-73
2022/11/22 06:51:18;;;;;;;12.35;1.30;;;5.40;99.90;;;4.64;100.00;95803.94;5043917;28;20052;-73
2022/11/22 06:53:45;;;;;;;;;;;5.40;99.90;;;4.68;100.00;95803.72;5060527;28;20083;-72
2022/11/22 06:56:30;;;;;;;12.82;1.83;;;5.50;99.90;;;4.79;100.00;95795.50;5040041;28;19921;-73
2022/11/22 06:59:04;;;;;;;11.93;1.58;;;5.40;99.90;;;4.81;100.00;95802.25;5043429;28;20186;-73
2022/11/22 07:01:33;;;;;;;15.95;2.10;;;5.40;99.90;;;4.60;100.00;95798.13;5043981;28;20052;-72
2022/11/22 07:04:02;;;;;;;12.02;1.45;;;5.30;99.90;;;4.52;100.00;95795.09;5045660;28;20059;-73
2022/11/22 07:06:36;;;;;;;10.25;1.30;;;5.30;99.90;;;4.50;100.00;95789.19;5043881;28;20114;-73
2022/11/22 07:09:06;;;;;;;14.48;1.60;;;5.20;99.90;;;4.43;100.00;95809.19;5034973;28;20095;-73
2022/11/22 07:11:34;;;;;;;11.02;1.65;;;5.10;99.90;;;4.51;100.00;95801.13;5054324;28;20134;-73
2022/11/22 07:14:03;;;;;;;14.43;2.03;;;5.10;99.90;;;4.54;100.00;95801.81;5041680;28;20726;-73
2022/11/22 07:16:36;;;;;;;12.50;1.63;;;5.10;99.90;;;4.45;100.00;95793.69;5043246;28;20049;-72
2022/11/22 07:19:04;;;;;;;12.98;2.25;;;5.10;99.90;;;4.40;100.00;95817.88;5054251;28;20041;-71
2022/11/22 07:21:31;;;;;;;17.52;3.63;;;5.10;99.90;;;4.38;100.00;95811.97;5042117;28;20049;-73
2022/11/22 07:23:58;;;;;;;11.55;2.05;;;5.10;99.90;;;4.47;100.00;95800.44;5024705;28;20060;-73
2022/11/22 07:26:26;;;;;;;14.88;2.58;;;5.10;99.90;;;4.43;100.00;95806.63;5042776;28;20045;-72
2022/11/22 07:28:53;;;;;;;11.65;1.85;;;5.00;99.90;;;4.33;100.00;95815.66;5041766;28;20060;-73
2022/11/22 07:31:20;;;;;;;16.38;3.10;;;5.00;99.90;;;4.48;100.00;95814.94;5038533;28;20136;-73
2022/11/22 07:33:47;;;;;;;12.75;3.72;;;5.00;99.90;;;4.40;100.00;95822.16;5038978;28;20040;-72
2022/11/22 07:36:21;;;;;;;13.43;2.47;;;4.90;99.90;;;4.47;100.00;95817.56;5044055;28;20053;-73
2022/11/22 07:38:49;;;;;;;11.15;1.50;;;5.00;99.90;;;4.48;100.00;95827.78;5044837;28;20053;-73
2022/11/22 07:41:18;;;;;;;14.63;2.13;;;5.10;99.90;;;4.51;100.00;95834.53;5043088;28;20049;-72
2022/11/22 07:43:45;;;;;;;14.98;2.78;;;5.20;99.90;;;4.44;100.00;95835.72;5059195;28;20045;-73
2022/11/22 07:46:28;;;;;;;14.55;2.85;;;5.20;99.90;;;4.57;100.00;95844.53;5058985;28;20600;-73
2022/11/22 07:48:56;;;;;;;13.18;2.95;;;5.30;99.90;;;4.62;100.00;95850.28;5042417;28;20060;-73
2022/11/22 07:51:23;;;;;;;12.98;2.50;;;5.30;99.90;;;4.67;100.00;95850.06;5058636;28;20148;-73
2022/11/22 07:53:50;;;;;;;11.52;2.28;;;5.30;99.90;;;4.77;100.00;95844.41;5039024;28;20052;-73
2022/11/22 07:56:17;;;;;;;17.45;2.78;;;5.30;99.90;;;4.51;100.00;95855.06;5041847;28;20076;-73
2022/11/22 07:58:44;;;;;;;17.02;2.97;;;5.40;99.90;;;4.57;100.00;95847.09;5037993;28;20718;-72
2022/11/22 08:01:14;;;;;;;11.20;2.03;;;5.40;99.90;;;4.57;100.00;95811.94;5041216;28;20210;-72
2022/11/22 08:03:43;;;;;;;11.40;1.95;;;5.40;99.90;;;4.60;100.00;95864.91;5041428;28;20758;-73
2022/11/22 08:06:12;;;;;;;9.43;1.67;;;5.30;99.90;;;4.71;100.00;95861.88;5037745;28;20447;-73
2022/11/22 08:08:39;;;;;;;17.30;2.58;;;5.40;99.90;;;4.67;100.00;95862.91;5043025;28;20063;-73
2022/11/22 08:11:07;;;;;;;9.27;1.70;;;5.40;99.90;;;4.55;100.00;95874.59;5042278;28;20045;-73
2022/11/22 08:13:35;;;;;;;12.07;2.28;;;5.30;99.90;;;4.48;100.00;95871.47;5041915;28;20682;-73
2022/11/22 08:16:09;;;;;;;13.13;1.90;;;5.40;99.90;;;4.53;100.00;95881.53;5042303;28;20045;-72
2022/11/22 08:18:37;;;;;;;11.77;2.40;;;5.40;99.90;;;4.57;100.00;95878.75;5042085;28;20045;-72
2022/11/22 08:21:11;;;;;;;11.18;1.80;;;5.30;99.90;;;4.48;100.00;95876.59;5044090;28;20056;-73
2022/11/22 08:23:39;;;;;;;10.02;1.83;;;5.40;99.90;;;4.63;100.00;95872.50;5059486;28;20059;-73
2022/11/22 08:26:11;;;;;;;11.02;1.60;;;5.40;99.90;;;4.63;100.00;95890.50;5061729;28;20203;-74
2022/11/22 08:28:39;;;;;;;13.60;1.65;;;5.40;99.90;;;4.80;100.00;95887.13;5046069;28;20053;-73
2022/11/22 08:31:14;;;;;;;12.55;1.48;;;5.30;99.90;;;4.73;100.00;95886.59;5026827;28;20044;-73
2022/11/22 08:33:41;;;;;;;10.55;2.17;;;5.30;99.90;;;4.81;100.00;95886.22;5033644;28;20057;-73
2022/11/22 08:36:08;;;;;;;11.52;1.95;;;5.30;99.90;;;4.74;100.00;95890.81;5043794;28;20099;-73
2022/11/22 08:38:35;;;;;;;11.05;1.33;;;5.40;99.90;;;4.63;100.00;95885.38;5047545;28;20040;-73
2022/11/22 08:41:05;;;;;;;13.05;1.85;;;5.40;99.90;;;4.63;100.00;95902.50;5044010;28;20049;-72
2022/11/22 08:43:32;;;;;;;13.82;1.92;;;5.50;99.90;;;4.68;100.00;95903.97;5048184;28;20060;-72
2022/11/22 08:46:00;;;;;;;12.55;1.60;;;5.50;99.90;;;4.56;100.00;95894.22;5046534;28;20055;-72
2022/11/22 08:48:30;;;;;;;12.02;1.70;;;5.50;99.90;;;4.74;100.00;95887.41;5045482;28;20714;-72
2022/11/22 08:51:00;;;;;;;10.40;1.75;;;5.50;99.90;;;4.71;100.00;95890.13;5037930;28;20049;-74
2022/11/22 08:53:31;;;;;;;14.02;2.40;;;5.50;99.90;;;4.68;100.00;95896.25;5045239;28;20056;-74
2022/11/22 08:56:00;;;;;;;16.30;1.95;;;5.50;99.90;;;4.84;100.00;95891.22;5045484;28;20048;-72
2022/11/22 09:02:27;;;;;;;15.45;3.22;;;5.50;99.90;;;4.92;100.00;95883.16;5051268;28;20130;-74
2022/11/22 09:04:54;;;;;;;15.38;2.00;;;5.60;99.90;;;4.94;100.00;95889.88;5046655;28;20111;-73
2022/11/22 09:07:20;;;;;;;10.77;1.80;;;5.60;99.90;;;4.98;100.00;95875.97;5046794;28;20048;-73
2022/11/22 09:10:07;;;;;;;10.70;2.08;;;5.60;99.90;;;4.79;100.00;95886.31;5046130;28;20048;-73
2022/11/22 09:12:34;;;;;;;8.60;1.80;;;5.60;99.90;;;5.02;100.00;95877.50;5047990;28;20049;-73
2022/11/22 09:15:01;;;;;;;10.82;2.05;;;5.70;99.90;;;4.77;100.00;95874.44;5042131;28;20041;-72
2022/11/22 09:17:28;;;;;;;12.48;2.05;;;5.60;99.90;;;4.98;100.00;95870.84;5042168;28;20149;-73
2022/11/22 09:19:55;;;;;;;10.55;1.77;;;5.60;99.90;;;4.92;100.00;95871.13;5042998;28;20641;-73
2022/11/22 09:22:22;;;;;;;14.18;2.50;;;5.60;99.90;;;4.96;100.00;95875.22;5040840;28;20482;-72
2022/11/22 09:24:54;;;;;;;14.15;1.92;;;5.70;99.90;;;4.98;100.00;95865.69;5044679;28;20851;-72
2022/11/22 09:27:21;;;;;;;15.07;2.10;;;5.70;99.90;;;4.95;100.00;95880.41;5046826;28;20395;-73
2022/11/22 09:29:48;;;;;;;7.45;1.67;;;5.80;99.90;;;4.96;100.00;95872.66;5045597;28;20490;-73
2022/11/22 09:32:16;;;;;;;14.02;2.33;;;5.80;99.90;;;5.12;100.00;95869.34;5026884;28;20051;-72
2022/11/22 09:34:42;;;;;;;17.13;1.98;;;5.80;99.90;;;5.10;100.00;95866.00;5026347;28;20061;-72
2022/11/22 09:37:09;;;;;;;11.52;1.85;;;5.90;99.90;;;5.19;100.00;95868.13;5047532;28;20105;-72
2022/11/22 09:39:36;;;;;;;13.10;2.20;;;6.00;99.90;;;5.10;100.00;95866.84;5046120;28;20036;-72
2022/11/22 09:42:25;;;;;;;12.20;1.95;;;6.00;99.90;;;5.19;100.00;95870.72;5044276;28;20175;-73
2022/11/22 09:45:38;;;;;;;13.95;2.45;;;6.00;99.90;;;5.45;100.00;95839.41;5061534;28;20053;-73
2022/11/22 09:48:31;;;;;;;13.05;1.70;;;6.00;99.90;;;5.20;100.00;95846.63;5043891;28;20049;-72
2022/11/22 09:51:07;;;;;;;9.43;1.38;;;6.00;99.90;;;5.45;100.00;95852.25;5042149;28;20444;-73
2022/11/22 09:53:51;;;;;;;19.42;1.65;;;6.20;99.90;;;5.51;100.00;95838.25;5053640;28;20470;-72
2022/11/22 09:56:23;;;;;;;11.02;1.92;;;6.20;99.90;;;5.38;100.00;95835.47;5045108;28;20052;-73
2022/11/22 09:59:19;;;;;;;10.00;1.53;;;6.20;99.90;;;5.41;100.00;95819.88;5042552;28;20110;-72
2022/11/22 10:01:58;;;;;;;22.35;2.97;;;6.20;99.90;;;5.48;100.00;95814.44;5041126;28;20322;-73
2022/11/22 10:04:52;;;;;;;9.65;1.83;;;6.20;99.90;;;5.48;100.00;95814.44;5040085;28;20577;-72
2022/11/22 10:07:24;;;;;;;13.98;2.67;;;6.50;99.90;;;5.83;100.00;95808.28;5018297;28;20049;-72
2022/11/22 10:10:17;;;;;;;6.50;1.35;;;6.60;99.90;;;5.86;100.00;95807.28;5024134;28;20065;-72
2022/11/22 10:13:18;;;;;;;10.52;1.58;;;6.60;99.90;;;6.03;100.00;95799.53;5039097;28;20106;-73
2022/11/22 10:15:57;;;;;;;14.43;1.58;;;6.70;99.90;;;5.58;100.00;95805.31;5036769;28;20076;-73
2022/11/22 10:18:38;;;;;;;5.80;1.40;;;6.70;99.90;;;5.90;100.00;95800.25;5058188;28;20059;-72
2022/11/22 10:21:11;;;;;;;9.15;1.52;;;6.60;99.90;;;5.80;100.00;95811.03;5057368;28;20059;-74
2022/11/22 10:23:41;;;;;;;9.05;1.42;;;6.60;99.90;;;5.66;100.00;95816.06;5043159;28;20142;-73
2022/11/22 10:26:24;;;;;;;8.77;1.60;;;6.70;99.90;;;5.69;100.00;95802.19;5044295;28;20055;-72
2022/11/22 10:29:12;;;;;;;10.65;2.08;;;6.70;99.90;;;5.89;100.00;95796.00;5026608;28;20087;-73
2022/11/22 10:31:42;;;;;;;9.30;2.20;;;6.80;99.90;;;5.92;100.00;95799.25;5043402;28;20081;-73
2022/11/22 10:34:30;;;;;;;11.60;2.08;;;6.90;99.90;;;6.06;100.00;95791.63;5047241;28;20461;-73
2022/11/22 10:37:31;;;;;;;7.28;1.45;;;6.90;99.90;;;5.92;100.00;95796.66;5044616;28;20073;-73
2022/11/22 10:40:42;;;;;;;9.80;1.55;;;6.90;99.90;;;6.22;100.00;95786.50;5045245;28;20044;-72
2022/11/22 10:43:41;;;;;;;7.75;1.20;;;6.90;99.90;;;6.01;100.00;95803.94;5038419;28;20041;-73
2022/11/22 10:46:25;;;;;;;8.38;1.20;;;6.90;99.90;;;6.11;100.00;95793.97;5045844;28;20045;-73
2022/11/22 10:49:19;;;;;;;7.18;1.27;;;6.90;99.90;;;5.97;100.00;95806.75;5042584;28;20064;-73